Time;durP1;ratioP1;P1;durP2;ratioP2;P2;SDS_P1;SDS_P2;PMS_P1;PMS_P2;Temp;Humidity;BMP_temperature;BMP_pressure;BME280_temperature;BME280_humidity;BME280_pressure;Samples;Min_cycle;Max_cycle;Signal;HPM_P1;HPM_P2
2023/12/13 00:00:31;;;;;;;3.37;1.70;;;10.40;99.90;;;;;;5073108;28;20431;-74
2023/12/13 00:03:16;;;;;;;7.00;2.00;;;10.40;99.90;;;;;;5074897;28;20812;-74
2023/12/13 00:06:02;;;;;;;6.20;2.00;;;10.50;99.90;;;;;;5081011;28;20431;-73
2023/12/13 00:08:48;;;;;;;18.37;1.87;;;10.50;99.90;;;;;;5080027;28;20776;-74
2023/12/13 00:11:33;;;;;;;4.10;1.43;;;10.60;99.90;;;;;;5075138;28;20439;-73
2023/12/13 00:14:20;;;;;;;4.90;2.00;;;10.60;99.90;;;;;;5078745;28;20788;-74
2023/12/13 00:17:10;;;;;;;6.13;1.90;;;10.60;99.90;;;;;;5080637;28;20438;-73
2023/12/13 00:19:56;;;;;;;7.73;2.20;;;10.60;99.90;;;;;;5076251;22;20452;-74
2023/12/13 00:22:41;;;;;;;2.80;1.20;;;10.60;99.90;;;;;;5041904;28;20539;-74
2023/12/13 00:25:27;;;;;;;6.43;2.03;;;10.60;99.90;;;;;;5034514;28;20473;-74
2023/12/13 00:28:13;;;;;;;7.07;2.00;;;10.60;99.90;;;;;;5037730;28;20440;-74
2023/12/13 00:30:59;;;;;;;8.30;1.87;;;10.60;99.90;;;;;;5042221;28;20506;-74
2023/12/13 00:33:46;;;;;;;2.73;1.47;;;10.60;99.90;;;;;;5042754;28;20428;-74
2023/12/13 00:36:31;;;;;;;4.90;1.40;;;10.60;99.90;;;;;;5051146;28;20409;-75
2023/12/13 00:39:16;;;;;;;6.70;1.97;;;10.60;99.90;;;;;;5043198;28;20496;-74
2023/12/13 00:42:02;;;;;;;7.93;1.40;;;10.60;99.90;;;;;;5043714;28;20406;-74
2023/12/13 00:44:49;;;;;;;4.90;1.23;;;10.50;99.90;;;;;;5043497;28;20763;-74
2023/12/13 00:47:34;;;;;;;9.20;1.70;;;10.50;99.90;;;;;;5043708;28;20442;-74
2023/12/13 00:50:21;;;;;;;4.93;1.63;;;10.50;99.90;;;;;;5038054;28;20524;-74
2023/12/13 00:53:07;;;;;;;11.13;2.70;;;10.50;99.90;;;;;;5044893;28;20438;-74
2023/12/13 00:55:53;;;;;;;4.80;1.70;;;10.50;99.90;;;;;;5043898;28;20426;-74
2023/12/13 00:58:39;;;;;;;4.73;1.67;;;10.50;99.90;;;;;;5041922;28;20994;-74
2023/12/13 01:01:24;;;;;;;3.83;1.60;;;10.40;99.90;;;;;;5042701;28;20434;-74
2023/12/13 01:04:11;;;;;;;3.70;1.57;;;10.40;99.90;;;;;;5036782;28;20441;-74
2023/12/13 01:06:58;;;;;;;4.87;1.50;;;10.40;99.90;;;;;;5048914;28;20514;-74
2023/12/13 01:09:43;;;;;;;3.80;1.30;;;10.50;99.90;;;;;;5042010;28;20567;-74
2023/12/13 01:12:29;;;;;;;4.83;1.50;;;10.40;99.90;;;;;;5043396;28;20460;-74
2023/12/13 01:15:14;;;;;;;9.80;1.73;;;10.50;99.90;;;;;;5040947;28;20496;-74
2023/12/13 01:18:00;;;;;;;5.97;1.60;;;10.50;99.90;;;;;;5042956;28;20408;-74
2023/12/13 01:20:45;;;;;;;4.80;1.27;;;10.40;99.90;;;;;;5037774;28;20485;-75
2023/12/13 01:23:33;;;;;;;1.77;1.13;;;10.40;99.90;;;;;;5043681;28;20528;-74
2023/12/13 01:26:18;;;;;;;9.60;1.77;;;10.40;99.90;;;;;;5041923;28;20911;-74
2023/12/13 01:29:04;;;;;;;5.53;2.23;;;10.40;99.90;;;;;;5044568;28;20458;-74
2023/12/13 01:31:50;;;;;;;13.37;1.87;;;10.40;99.90;;;;;;5039227;28;20536;-74
2023/12/13 01:34:35;;;;;;;4.80;1.67;;;10.40;99.90;;;;;;5048615;28;20800;-74
2023/12/13 01:37:21;;;;;;;5.10;1.57;;;10.50;99.90;;;;;;5038528;28;20890;-74
2023/12/13 01:40:09;;;;;;;11.17;1.80;;;10.50;99.90;;;;;;5044813;28;20458;-74
2023/12/13 01:42:54;;;;;;;11.07;1.80;;;10.50;99.90;;;;;;5041140;28;20441;-74
2023/12/13 01:45:40;;;;;;;11.77;2.00;;;10.40;99.90;;;;;;5049351;28;20434;-74
2023/12/13 01:48:27;;;;;;;7.30;2.33;;;10.40;99.90;;;;;;5045671;28;20484;-74
2023/12/13 01:51:13;;;;;;;3.60;1.50;;;10.30;99.90;;;;;;5039797;28;20396;-74
2023/12/13 01:53:59;;;;;;;5.00;1.70;;;10.30;99.90;;;;;;5045678;28;20439;-74
2023/12/13 01:56:48;;;;;;;3.57;1.40;;;10.30;99.90;;;;;;5038567;28;20442;-74
2023/12/13 01:59:34;;;;;;;6.50;1.70;;;10.30;99.90;;;;;;5048473;28;20458;-74
2023/12/13 02:02:20;;;;;;;3.23;1.27;;;10.30;99.90;;;;;;5038632;28;20426;-74
2023/12/13 02:05:08;;;;;;;3.40;1.40;;;10.30;99.90;;;;;;5044408;28;20908;-75
2023/12/13 02:07:54;;;;;;;4.60;1.70;;;10.30;99.90;;;;;;5046815;28;20945;-74
2023/12/13 02:10:39;;;;;;;4.37;1.23;;;10.30;99.90;;;;;;5042465;28;20456;-74
2023/12/13 02:13:26;;;;;;;7.03;1.53;;;10.30;99.90;;;;;;5039869;28;20899;-75
2023/12/13 02:16:12;;;;;;;2.87;1.40;;;10.30;99.90;;;;;;5043820;28;20413;-74
2023/12/13 02:18:58;;;;;;;3.90;1.60;;;10.30;99.90;;;;;;5044912;28;20458;-74
2023/12/13 02:21:43;;;;;;;4.00;1.47;;;10.20;99.90;;;;;;5043499;28;21305;-74
2023/12/13 02:24:32;;;;;;;5.87;1.40;;;10.10;99.90;;;;;;5038409;28;20613;-74
2023/12/13 02:27:18;;;;;;;4.00;1.30;;;10.10;99.90;;;;;;5040952;28;20468;-75
2023/12/13 02:30:04;;;;;;;6.20;1.90;;;10.10;99.90;;;;;;5043265;28;20505;-74
2023/12/13 02:32:50;;;;;;;4.10;1.43;;;10.10;99.90;;;;;;5045061;28;20425;-74
2023/12/13 02:35:36;;;;;;;5.90;1.40;;;10.20;99.90;;;;;;5046255;28;20404;-74
2023/12/13 02:38:21;;;;;;;8.73;1.63;;;10.10;99.90;;;;;;5041168;28;20455;-74
2023/12/13 02:41:08;;;;;;;10.53;1.53;;;10.10;99.90;;;;;;5046743;28;20424;-74
2023/12/13 02:43:54;;;;;;;4.43;1.00;;;10.10;99.90;;;;;;5045174;28;20451;-74
2023/12/13 02:46:40;;;;;;;7.83;2.20;;;10.10;99.90;;;;;;5042577;28;21224;-74
2023/12/13 02:49:26;;;;;;;4.67;1.20;;;10.10;99.90;;;;;;5044683;28;20422;-75
2023/12/13 02:52:11;;;;;;;3.77;1.50;;;10.10;99.90;;;;;;5038982;28;20434;-74
2023/12/13 02:54:57;;;;;;;5.27;1.40;;;10.10;99.90;;;;;;5040080;28;20389;-75
2023/12/13 02:57:44;;;;;;;5.73;1.53;;;10.10;99.90;;;;;;5046035;28;20436;-74
2023/12/13 03:00:30;;;;;;;8.43;1.47;;;10.10;99.90;;;;;;5047253;28;20840;-74
2023/12/13 03:03:15;;;;;;;3.40;1.30;;;10.00;99.90;;;;;;5040072;28;20849;-74
2023/12/13 03:06:01;;;;;;;3.50;1.53;;;10.10;99.90;;;;;;5039381;28;21047;-74
2023/12/13 03:08:47;;;;;;;5.93;1.10;;;10.10;99.90;;;;;;5042265;28;20454;-74
2023/12/13 03:11:32;;;;;;;5.43;1.07;;;10.10;99.90;;;;;;5043134;28;20412;-74
2023/12/13 03:14:20;;;;;;;3.10;1.07;;;10.10;99.90;;;;;;5043440;28;20426;-74
2023/12/13 03:17:05;;;;;;;1.30;0.70;;;10.10;99.90;;;;;;5044174;28;20519;-74
2023/12/13 03:19:51;;;;;;;7.43;1.23;;;10.20;99.90;;;;;;5039536;28;20437;-74
2023/12/13 03:22:37;;;;;;;5.10;1.40;;;10.20;99.90;;;;;;5039651;28;20766;-74
2023/12/13 03:25:22;;;;;;;5.30;1.37;;;10.10;99.90;;;;;;5041779;28;20401;-74
2023/12/13 03:28:08;;;;;;;2.93;0.90;;;10.10;99.90;;;;;;5044168;28;20425;-74
2023/12/13 03:30:55;;;;;;;4.60;1.43;;;10.00;99.90;;;;;;5042778;28;20405;-74
2023/12/13 03:33:40;;;;;;;5.60;1.20;;;9.90;99.90;;;;;;5048585;28;20798;-74
2023/12/13 03:36:26;;;;;;;2.87;1.00;;;9.90;99.90;;;;;;5042324;28;20424;-74
2023/12/13 03:39:12;;;;;;;4.30;1.20;;;9.80;99.90;;;;;;5043400;28;20450;-74
2023/12/13 03:41:57;;;;;;;4.73;1.03;;;9.70;99.90;;;;;;5045967;28;20442;-74
2023/12/13 03:44:43;;;;;;;3.80;1.00;;;9.70;99.90;;;;;;5049383;28;20470;-74
2023/12/13 03:47:30;;;;;;;6.53;1.50;;;9.70;99.90;;;;;;5051418;28;21004;-74
2023/12/13 03:50:15;;;;;;;3.37;1.00;;;9.70;99.90;;;;;;5043589;28;20462;-74
2023/12/13 03:53:01;;;;;;;2.30;1.17;;;9.70;99.90;;;;;;5047133;28;20428;-74
2023/12/13 03:55:47;;;;;;;5.23;1.03;;;9.70;99.90;;;;;;5047285;28;20488;-74
2023/12/13 03:58:32;;;;;;;2.30;1.30;;;9.70;99.90;;;;;;5048506;28;20540;-74
2023/12/13 04:01:18;;;;;;;5.50;3.10;;;9.60;99.90;;;;;;5044649;28;20397;-74
2023/12/13 04:04:05;;;;;;;3.03;1.30;;;9.70;99.90;;;;;;5049943;28;20890;-74
2023/12/13 04:06:51;;;;;;;5.83;1.43;;;9.70;99.90;;;;;;5048277;28;20430;-74
2023/12/13 04:09:37;;;;;;;6.00;1.40;;;9.70;99.90;;;;;;5043452;28;20555;-74
2023/12/13 04:12:22;;;;;;;3.10;1.23;;;9.70;99.90;;;;;;5047466;28;20400;-74
2023/12/13 04:15:09;;;;;;;4.83;1.37;;;9.80;99.90;;;;;;5048948;28;20971;-74
2023/12/13 04:17:54;;;;;;;2.23;1.00;;;9.70;99.90;;;;;;5043838;28;20429;-74
2023/12/13 04:20:41;;;;;;;3.93;1.30;;;9.70;99.90;;;;;;5047821;28;20514;-74
2023/12/13 04:23:27;;;;;;;4.03;1.33;;;9.80;99.90;;;;;;5046390;28;20439;-74
2023/12/13 04:26:13;;;;;;;4.10;1.10;;;9.70;99.90;;;;;;5051933;28;20414;-74
2023/12/13 04:28:58;;;;;;;3.70;1.20;;;9.70;99.90;;;;;;5050676;28;20424;-74
2023/12/13 04:31:44;;;;;;;3.37;1.07;;;9.80;99.90;;;;;;5047037;28;20408;-74
2023/12/13 04:34:30;;;;;;;5.30;1.27;;;9.90;99.90;;;;;;5045903;28;20434;-74
2023/12/13 04:37:17;;;;;;;4.83;1.20;;;9.80;99.90;;;;;;5039109;28;20519;-74
2023/12/13 04:40:02;;;;;;;4.93;1.00;;;9.80;99.90;;;;;;5048456;28;20499;-74
2023/12/13 04:42:48;;;;;;;6.10;1.47;;;9.80;99.90;;;;;;5047299;28;20439;-74
2023/12/13 04:45:33;;;;;;;3.13;1.40;;;9.80;99.90;;;;;;5048641;28;20886;-74
2023/12/13 04:48:19;;;;;;;11.30;1.83;;;9.80;99.90;;;;;;5039458;28;20446;-74
2023/12/13 04:51:05;;;;;;;4.67;1.60;;;9.80;99.90;;;;;;5045232;28;20651;-74
2023/12/13 04:53:52;;;;;;;2.77;1.20;;;9.80;99.90;;;;;;5047351;28;20465;-74
2023/12/13 04:56:37;;;;;;;8.27;1.10;;;9.80;99.90;;;;;;5047079;28;20462;-74
2023/12/13 04:59:23;;;;;;;3.80;1.60;;;9.80;99.90;;;;;;5046833;28;20440;-74
2023/12/13 05:02:09;;;;;;;6.27;1.10;;;9.80;99.90;;;;;;5048683;28;20421;-74
2023/12/13 05:04:54;;;;;;;2.23;0.90;;;9.80;99.90;;;;;;5049284;28;20725;-75
2023/12/13 05:07:40;;;;;;;3.40;1.30;;;9.70;99.90;;;;;;5047742;28;20447;-74
2023/12/13 05:10:27;;;;;;;13.27;1.30;;;9.60;99.90;;;;;;5044764;28;20447;-74
2023/12/13 05:13:13;;;;;;;4.80;1.20;;;9.60;99.90;;;;;;5048634;28;20430;-74
2023/12/13 05:15:59;;;;;;;8.47;1.40;;;9.50;99.90;;;;;;5047082;28;20832;-74
2023/12/13 05:18:44;;;;;;;2.03;1.20;;;9.50;99.90;;;;;;5047016;28;20444;-74
2023/12/13 05:21:31;;;;;;;7.50;1.93;;;9.50;99.90;;;;;;5038857;28;20629;-74
2023/12/13 05:24:16;;;;;;;4.93;1.33;;;9.50;99.90;;;;;;5039809;28;21054;-74
2023/12/13 05:27:04;;;;;;;7.00;2.10;;;9.50;99.90;;;;;;5046739;28;20921;-74
2023/12/13 05:29:49;;;;;;;3.50;1.27;;;9.50;99.90;;;;;;5046373;28;20824;-74
2023/12/13 05:32:35;;;;;;;7.03;1.57;;;9.50;99.90;;;;;;5050255;28;20467;-74
2023/12/13 05:35:21;;;;;;;11.07;1.80;;;9.40;99.90;;;;;;5039906;28;20499;-74
2023/12/13 05:38:07;;;;;;;5.10;1.13;;;9.40;99.90;;;;;;5048137;28;20798;-74
2023/12/13 05:40:52;;;;;;;8.73;1.53;;;9.40;99.90;;;;;;5047216;28;20933;-74
2023/12/13 05:43:39;;;;;;;7.90;1.47;;;9.40;99.90;;;;;;5049776;28;20516;-74
2023/12/13 05:46:25;;;;;;;5.37;1.57;;;9.50;99.90;;;;;;5044541;28;20507;-74
2023/12/13 05:49:10;;;;;;;8.60;1.57;;;9.50;99.90;;;;;;5049074;28;20536;-74
2023/12/13 05:51:56;;;;;;;2.30;1.07;;;9.50;99.90;;;;;;5045527;28;20547;-74
2023/12/13 05:54:42;;;;;;;3.83;1.53;;;9.50;99.90;;;;;;5045103;28;20398;-74
2023/12/13 05:57:27;;;;;;;5.00;1.30;;;9.50;99.90;;;;;;5043962;28;20431;-74
2023/12/13 06:00:16;;;;;;;4.67;1.57;;;9.50;99.90;;;;;;5050112;28;20928;-74
2023/12/13 06:03:01;;;;;;;3.50;1.57;;;9.50;99.90;;;;;;5047120;28;20570;-74
2023/12/13 06:05:47;;;;;;;6.20;1.60;;;9.60;99.90;;;;;;5047301;28;20426;-75
2023/12/13 06:08:33;;;;;;;9.53;1.40;;;9.60;99.90;;;;;;5042831;28;20640;-74
2023/12/13 06:11:18;;;;;;;6.83;1.37;;;9.60;99.90;;;;;;5049202;28;20426;-74
2023/12/13 06:14:04;;;;;;;5.50;2.30;;;9.60;99.90;;;;;;5051538;28;20516;-74
2023/12/13 06:16:51;;;;;;;5.17;1.83;;;9.60;99.90;;;;;;5048771;28;20434;-75
2023/12/13 06:19:37;;;;;;;6.90;1.60;;;9.70;99.90;;;;;;5049378;28;20465;-74
2023/12/13 06:22:23;;;;;;;6.00;1.40;;;9.70;99.90;;;;;;5044888;28;20431;-74
2023/12/13 06:25:09;;;;;;;4.80;1.40;;;9.70;99.90;;;;;;5049223;28;20513;-74
2023/12/13 06:27:54;;;;;;;5.17;1.13;;;9.70;99.90;;;;;;5047853;28;20507;-74
2023/12/13 06:30:40;;;;;;;13.53;2.07;;;9.80;99.90;;;;;;5049932;28;20833;-74
2023/12/13 06:33:27;;;;;;;2.70;1.20;;;9.80;99.90;;;;;;5041112;28;20915;-73
2023/12/13 06:36:12;;;;;;;3.63;1.27;;;9.70;99.90;;;;;;5049317;28;20448;-74
2023/12/13 06:38:58;;;;;;;2.23;0.97;;;9.70;99.90;;;;;;5046809;28;20833;-74
2023/12/13 06:41:45;;;;;;;11.13;1.67;;;9.70;99.90;;;;;;5049003;28;20433;-74
2023/12/13 06:44:30;;;;;;;4.10;1.27;;;9.70;99.90;;;;;;5050470;28;20498;-74
2023/12/13 06:47:16;;;;;;;7.90;1.40;;;9.70;99.90;;;;;;5049299;28;20455;-74
2023/12/13 06:50:03;;;;;;;4.93;1.30;;;9.60;99.90;;;;;;5048795;28;20472;-74
2023/12/13 06:52:49;;;;;;;7.20;1.97;;;9.70;99.90;;;;;;5045657;28;20435;-74
2023/12/13 06:55:35;;;;;;;10.57;1.87;;;9.70;99.90;;;;;;5045437;28;20484;-74
2023/12/13 06:58:20;;;;;;;6.57;1.47;;;9.60;99.90;;;;;;5049079;28;20426;-74
2023/12/13 07:01:06;;;;;;;3.60;1.23;;;9.70;99.90;;;;;;5047716;28;20804;-72
2023/12/13 07:03:52;;;;;;;7.43;1.80;;;9.70;99.90;;;;;;5048134;28;20565;-74
2023/12/13 07:06:40;;;;;;;3.50;1.60;;;9.80;99.90;;;;;;5045487;28;20430;-73
2023/12/13 07:09:25;;;;;;;2.63;1.57;;;9.80;99.90;;;;;;5038175;28;20477;-74
2023/12/13 07:12:11;;;;;;;5.30;2.23;;;9.80;99.90;;;;;;5048853;28;20430;-74
2023/12/13 07:14:57;;;;;;;2.67;1.90;;;9.90;99.90;;;;;;5048225;28;20856;-73
2023/12/13 07:17:43;;;;;;;7.47;3.10;;;9.90;99.90;;;;;;5049335;28;20439;-74
2023/12/13 07:20:30;;;;;;;14.37;2.77;;;9.90;99.90;;;;;;5045701;28;20429;-74
2023/12/13 07:23:17;;;;;;;10.77;2.00;;;9.90;99.90;;;;;;5049385;28;20940;-74
2023/12/13 07:26:03;;;;;;;7.90;2.50;;;9.90;99.90;;;;;;5048207;28;20473;-74
2023/12/13 07:28:49;;;;;;;4.47;2.17;;;9.90;99.90;;;;;;5047045;28;20617;-74
2023/12/13 07:31:39;;;;;;;6.70;4.40;;;9.90;99.90;;;;;;5050338;28;20781;-74
2023/12/13 07:34:25;;;;;;;7.00;2.97;;;9.90;99.90;;;;;;5049441;28;20443;-74
2023/12/13 07:37:11;;;;;;;9.27;3.70;;;9.90;99.90;;;;;;5049950;28;20513;-74
2023/12/13 07:39:58;;;;;;;8.10;3.80;;;9.90;99.90;;;;;;5048419;28;20703;-74
2023/12/13 07:42:45;;;;;;;9.20;3.33;;;9.90;99.90;;;;;;5049145;28;20804;-74
2023/12/13 07:45:31;;;;;;;9.03;3.13;;;9.90;99.90;;;;;;5040385;28;20573;-74
2023/12/13 07:48:17;;;;;;;11.53;3.63;;;9.90;99.90;;;;;;5049601;28;20554;-74
2023/12/13 07:51:03;;;;;;;6.50;3.10;;;9.90;99.90;;;;;;5045020;28;20435;-73
2023/12/13 07:53:48;;;;;;;4.07;2.20;;;10.00;99.90;;;;;;5048907;28;20433;-73
2023/12/13 07:56:35;;;;;;;4.43;2.10;;;10.00;99.90;;;;;;5045418;28;20431;-73
2023/12/13 07:59:21;;;;;;;5.63;2.70;;;10.00;99.90;;;;;;5049913;28;20446;-74
2023/12/13 08:02:07;;;;;;;4.80;3.10;;;10.00;99.90;;;;;;5049280;28;20421;-73
2023/12/13 08:04:52;;;;;;;7.67;2.60;;;10.00;99.90;;;;;;5044532;28;20481;-73
2023/12/13 08:07:38;;;;;;;6.50;1.77;;;10.00;99.90;;;;;;5049864;28;20493;-74
2023/12/13 08:10:23;;;;;;;4.87;3.10;;;10.00;99.90;;;;;;5049472;28;20446;-74
2023/12/13 08:13:11;;;;;;;5.60;2.40;;;10.00;99.90;;;;;;5049454;28;20417;-73
2023/12/13 08:15:57;;;;;;;7.63;2.57;;;10.00;99.90;;;;;;5049051;28;20430;-73
2023/12/13 08:18:42;;;;;;;3.40;1.87;;;9.90;99.90;;;;;;5049170;28;20823;-73
2023/12/13 08:21:28;;;;;;;4.97;2.17;;;9.90;99.90;;;;;;5045174;28;20404;-74
2023/12/13 08:24:14;;;;;;;3.50;1.70;;;9.90;99.90;;;;;;5053403;28;20397;-74
2023/12/13 08:26:59;;;;;;;5.43;1.77;;;9.90;99.90;;;;;;5049884;28;20435;-74
2023/12/13 08:29:46;;;;;;;4.77;1.93;;;9.90;99.90;;;;;;5052936;28;20433;-73
2023/12/13 08:32:32;;;;;;;5.33;1.90;;;9.90;99.90;;;;;;5053326;28;20452;-74
2023/12/13 08:35:17;;;;;;;5.70;2.10;;;9.90;99.90;;;;;;5039230;28;20400;-74
2023/12/13 08:38:03;;;;;;;5.87;3.57;;;10.00;99.90;;;;;;5050829;28;20961;-74
2023/12/13 08:40:48;;;;;;;5.20;1.90;;;9.90;99.90;;;;;;5052676;28;20416;-74
2023/12/13 08:43:34;;;;;;;9.73;2.43;;;10.00;99.90;;;;;;5053351;28;20533;-74
2023/12/13 08:46:21;;;;;;;6.23;2.20;;;10.00;99.90;;;;;;5053384;28;20462;-74
2023/12/13 08:49:06;;;;;;;8.63;2.20;;;10.00;99.90;;;;;;5050103;28;20513;-74
2023/12/13 08:51:52;;;;;;;6.80;2.07;;;10.10;99.90;;;;;;5037767;28;20438;-74
2023/12/13 08:54:38;;;;;;;6.20;2.13;;;10.00;99.90;;;;;;5036197;28;20430;-74
2023/12/13 08:57:23;;;;;;;7.33;3.00;;;10.00;99.90;;;;;;5027242;28;20447;-74
2023/12/13 09:00:10;;;;;;;8.80;2.80;;;10.00;99.90;;;;;;5052819;28;20446;-74
2023/12/13 09:02:57;;;;;;;8.67;4.23;;;10.00;99.90;;;;;;5035450;28;20434;-74
2023/12/13 09:05:42;;;;;;;6.17;2.03;;;10.10;99.90;;;;;;5041069;28;20597;-74
2023/12/13 09:08:28;;;;;;;2.63;1.73;;;10.20;99.90;;;;;;5033528;28;20955;-74
2023/12/13 09:11:14;;;;;;;3.60;1.90;;;10.10;99.90;;;;;;5043598;28;20429;-74
2023/12/13 09:13:59;;;;;;;9.03;1.90;;;10.20;99.90;;;;;;5036680;28;20413;-74
2023/12/13 09:16:45;;;;;;;4.93;1.57;;;10.10;99.90;;;;;;5035598;28;20537;-74
2023/12/13 09:19:31;;;;;;;4.07;2.00;;;10.20;99.90;;;;;;5033204;28;20465;-73
2023/12/13 09:22:17;;;;;;;7.47;1.60;;;10.20;99.90;;;;;;5039571;28;20783;-74
2023/12/13 09:25:03;;;;;;;5.87;1.30;;;10.10;99.90;;;;;;5034536;28;20473;-74
2023/12/13 09:27:49;;;;;;;7.03;1.93;;;10.20;99.90;;;;;;5040725;28;20506;-74
2023/12/13 09:30:34;;;;;;;7.23;1.50;;;10.20;99.90;;;;;;5039690;28;20438;-74
2023/12/13 09:33:20;;;;;;;6.53;1.90;;;10.30;99.90;;;;;;5026334;28;20809;-74
2023/12/13 09:36:09;;;;;;;6.70;1.90;;;10.30;99.90;;;;;;5033736;28;20469;-74
2023/12/13 09:38:55;;;;;;;4.17;1.70;;;10.30;99.90;;;;;;5033527;28;20459;-74
2023/12/13 09:41:52;;;;;;;5.20;1.67;;;10.30;99.90;;;;;;5033407;28;20561;-74
2023/12/13 09:44:39;;;;;;;5.70;1.63;;;10.30;99.90;;;;;;5035495;28;20434;-74
2023/12/13 09:47:28;;;;;;;3.27;1.50;;;10.30;99.90;;;;;;5032232;28;20958;-74
2023/12/13 09:50:14;;;;;;;6.70;2.83;;;10.40;99.90;;;;;;5033107;28;20442;-74
2023/12/13 09:53:02;;;;;;;6.63;1.93;;;10.40;99.90;;;;;;5043149;28;20478;-74
2023/12/13 09:55:49;;;;;;;7.73;1.60;;;10.50;99.90;;;;;;5026053;28;20617;-74
2023/12/13 09:58:35;;;;;;;8.20;1.53;;;10.60;99.90;;;;;;5028328;28;20463;-74
2023/12/13 10:01:21;;;;;;;3.97;1.20;;;10.60;99.90;;;;;;5026342;28;20449;-74
2023/12/13 10:04:07;;;;;;;6.70;1.60;;;10.70;99.90;;;;;;5035962;28;20435;-74
2023/12/13 10:06:52;;;;;;;5.37;1.50;;;10.70;99.90;;;;;;5037742;28;20479;-74
2023/12/13 10:09:39;;;;;;;3.13;1.50;;;10.70;99.90;;;;;;5039730;28;20454;-73
2023/12/13 10:12:26;;;;;;;2.53;1.40;;;10.70;99.90;;;;;;5027029;28;20439;-74
2023/12/13 10:15:13;;;;;;;3.10;1.50;;;10.70;99.90;;;;;;5040579;28;20435;-74
2023/12/13 10:17:59;;;;;;;7.73;1.50;;;10.60;99.90;;;;;;5035276;28;20425;-74
2023/12/13 10:20:46;;;;;;;8.50;1.57;;;10.60;99.90;;;;;;5039254;28;20498;-74
2023/12/13 10:23:31;;;;;;;3.70;1.60;;;10.50;99.90;;;;;;5027540;28;20424;-74
2023/12/13 10:26:18;;;;;;;8.03;1.90;;;10.50;99.90;;;;;;5033346;28;20517;-73
2023/12/13 10:29:04;;;;;;;5.20;1.50;;;10.60;99.90;;;;;;5041057;28;20512;-73
2023/12/13 10:31:49;;;;;;;5.37;2.10;;;10.60;99.90;;;;;;5033778;28;20434;-74
2023/12/13 10:34:37;;;;;;;4.97;1.93;;;10.60;99.90;;;;;;5034334;28;20427;-74
2023/12/13 10:37:26;;;;;;;4.10;1.33;;;10.70;99.90;;;;;;5027027;28;20444;-74
2023/12/13 10:40:13;;;;;;;5.53;1.73;;;10.80;99.90;;;;;;5033181;28;20466;-74
2023/12/13 10:43:01;;;;;;;4.50;1.63;;;10.70;99.90;;;;;;5032284;28;20946;-73
2023/12/13 10:46:01;;;;;;;6.40;2.20;;;10.70;99.90;;;;;;5034124;28;21000;-74
2023/12/13 10:48:47;;;;;;;6.40;1.50;;;10.70;99.90;;;;;;5030164;28;20978;-73
2023/12/13 10:51:36;;;;;;;6.87;1.77;;;10.70;99.90;;;;;;5038465;28;20425;-74
2023/12/13 10:54:22;;;;;;;3.70;1.83;;;10.80;99.90;;;;;;5027100;28;20428;-74
2023/12/13 10:57:08;;;;;;;5.97;1.43;;;10.80;99.90;;;;;;5036530;28;20433;-74
2023/12/13 10:59:56;;;;;;;4.00;1.43;;;10.80;99.90;;;;;;5043351;28;20429;-74
2023/12/13 11:02:49;;;;;;;8.87;1.43;;;10.90;99.90;;;;;;5033112;28;20457;-73
2023/12/13 11:05:35;;;;;;;4.87;1.40;;;10.90;99.90;;;;;;5029435;28;20648;-73
2023/12/13 11:08:21;;;;;;;11.93;1.40;;;11.10;99.90;;;;;;5026443;28;20512;-74
2023/12/13 11:11:07;;;;;;;4.37;1.23;;;11.10;99.90;;;;;;5034797;28;20409;-73
2023/12/13 11:13:55;;;;;;;6.27;1.50;;;11.10;99.90;;;;;;5050914;28;20457;-73
2023/12/13 11:16:43;;;;;;;8.37;1.47;;;11.20;99.90;;;;;;5029329;28;20422;-74
2023/12/13 11:19:30;;;;;;;4.57;1.40;;;11.20;99.90;;;;;;5033484;28;20511;-73
2023/12/13 11:22:15;;;;;;;4.60;1.40;;;11.30;99.90;;;;;;5035009;28;20477;-74
2023/12/13 11:25:03;;;;;;;2.60;1.20;;;11.20;99.90;;;;;;5033242;28;20472;-72
2023/12/13 11:27:52;;;;;;;2.90;1.37;;;11.00;99.90;;;;;;5038257;28;20932;-72
2023/12/13 11:30:42;;;;;;;5.23;2.27;;;10.70;99.90;;;;;;5034435;28;20426;-72
2023/12/13 11:33:35;;;;;;;2.30;1.03;;;10.60;99.90;;;;;;5026580;28;20435;-72
2023/12/13 11:36:21;;;;;;;6.40;1.30;;;10.50;99.90;;;;;;5033794;28;20419;-72
2023/12/13 11:39:07;;;;;;;2.23;1.23;;;10.50;99.90;;;;;;5036075;28;20425;-72
2023/12/13 11:41:53;;;;;;;3.30;1.00;;;10.40;99.90;;;;;;5038485;28;21066;-72
2023/12/13 11:44:40;;;;;;;1.87;0.83;;;10.20;99.90;;;;;;5036071;28;20548;-72
2023/12/13 11:47:25;;;;;;;4.60;1.07;;;10.10;99.90;;;;;;5027551;28;20471;-72
2023/12/13 11:50:13;;;;;;;2.47;1.00;;;10.10;99.90;;;;;;5033147;28;20450;-72
2023/12/13 11:52:59;;;;;;;5.00;1.10;;;10.10;99.90;;;;;;5043239;28;20813;-74
2023/12/13 11:55:44;;;;;;;2.87;1.03;;;10.10;99.90;;;;;;5042397;28;20911;-74
2023/12/13 11:58:30;;;;;;;6.30;1.43;;;10.00;99.90;;;;;;5036676;28;20470;-74
2023/12/13 12:01:17;;;;;;;3.00;1.00;;;9.70;99.90;;;;;;5035629;28;20442;-74
2023/12/13 12:04:03;;;;;;;5.77;1.33;;;9.50;99.90;;;;;;5045204;28;20797;-74
2023/12/13 12:06:52;;;;;;;3.90;1.10;;;9.50;99.90;;;;;;5037440;28;20484;-74
2023/12/13 12:09:38;;;;;;;3.67;1.00;;;9.40;99.90;;;;;;5033053;28;20821;-74
2023/12/13 12:12:25;;;;;;;4.37;1.50;;;9.40;99.90;;;;;;5034720;28;20426;-73
2023/12/13 12:15:12;;;;;;;2.13;1.03;;;9.30;99.90;;;;;;5042270;28;20563;-74
2023/12/13 12:17:57;;;;;;;8.53;1.20;;;9.20;99.90;;;;;;5043287;28;21056;-74
2023/12/13 12:20:43;;;;;;;5.60;1.60;;;9.30;99.90;;;;;;5034769;28;20435;-73
2023/12/13 12:23:33;;;;;;;2.43;1.20;;;9.10;99.90;;;;;;5034887;28;20425;-75
2023/12/13 12:26:18;;;;;;;3.40;1.37;;;9.20;99.90;;;;;;5050269;28;21010;-74
2023/12/13 12:29:04;;;;;;;3.43;1.23;;;9.30;99.90;;;;;;5033927;28;20504;-76
2023/12/13 12:31:49;;;;;;;3.63;1.40;;;9.50;99.90;;;;;;5040810;28;20572;-73
2023/12/13 12:34:36;;;;;;;6.40;1.30;;;9.70;99.90;;;;;;5029252;28;20438;-73
2023/12/13 12:37:22;;;;;;;3.43;1.70;;;9.80;99.90;;;;;;5032204;28;20392;-73
2023/12/13 12:40:10;;;;;;;1.93;1.20;;;9.80;99.90;;;;;;5043969;28;20458;-74
2023/12/13 12:42:56;;;;;;;5.97;1.60;;;9.90;99.90;;;;;;5033041;28;20435;-75
2023/12/13 12:45:42;;;;;;;3.00;1.70;;;9.90;99.90;;;;;;5037621;28;20826;-74
2023/12/13 12:48:27;;;;;;;5.13;2.00;;;9.80;99.90;;;;;;5025428;28;20445;-73
2023/12/13 12:51:13;;;;;;;3.00;1.60;;;9.80;99.90;;;;;;5041798;28;20430;-74
2023/12/13 12:53:59;;;;;;;7.93;2.17;;;9.90;99.90;;;;;;5037693;28;20447;-73
2023/12/13 12:56:46;;;;;;;4.57;1.80;;;10.00;99.90;;;;;;5038568;28;20794;-74
2023/12/13 12:59:31;;;;;;;5.87;2.10;;;10.00;99.90;;;;;;5036017;28;20467;-73
2023/12/13 13:02:17;;;;;;;3.60;2.20;;;10.00;99.90;;;;;;5040575;28;20455;-73
2023/12/13 13:05:03;;;;;;;7.97;2.97;;;10.10;99.90;;;;;;5038246;28;20688;-73
2023/12/13 13:07:48;;;;;;;3.40;1.93;;;10.10;99.90;;;;;;5037097;28;20448;-73
2023/12/13 13:10:34;;;;;;;3.57;1.63;;;10.10;99.90;;;;;;5032578;28;20413;-74
2023/12/13 13:13:21;;;;;;;2.67;1.57;;;10.10;99.90;;;;;;5037420;28;20486;-73
2023/12/13 13:16:07;;;;;;;2.97;1.50;;;9.90;99.90;;;;;;5039536;28;20558;-73
2023/12/13 13:18:52;;;;;;;4.13;1.73;;;9.90;99.90;;;;;;5037105;28;20524;-74
2023/12/13 13:21:39;;;;;;;5.03;2.33;;;9.90;99.90;;;;;;5038033;28;20909;-73
2023/12/13 13:24:25;;;;;;;2.87;1.87;;;9.80;99.90;;;;;;5044139;28;20404;-74
2023/12/13 13:27:10;;;;;;;3.23;1.37;;;9.80;99.90;;;;;;5033509;28;20680;-73
2023/12/13 13:29:57;;;;;;;2.80;1.40;;;9.80;99.90;;;;;;5040518;28;20438;-73
2023/12/13 13:32:43;;;;;;;4.10;2.50;;;9.80;99.90;;;;;;5030532;28;20451;-73
2023/12/13 13:35:28;;;;;;;4.93;1.80;;;9.80;99.90;;;;;;5035012;28;20502;-73
2023/12/13 13:38:14;;;;;;;4.70;1.50;;;9.80;99.90;;;;;;5034660;28;20441;-75
2023/12/13 13:41:00;;;;;;;5.50;1.60;;;9.80;99.90;;;;;;5030810;28;20491;-75
2023/12/13 13:43:46;;;;;;;7.33;1.97;;;9.70;99.90;;;;;;5035723;28;20882;-75
2023/12/13 13:46:32;;;;;;;5.93;1.77;;;9.70;99.90;;;;;;5033479;28;20621;-73
2023/12/13 13:49:19;;;;;;;2.73;1.77;;;9.60;99.90;;;;;;5041027;28;20508;-75
2023/12/13 13:52:05;;;;;;;3.87;1.50;;;9.60;99.90;;;;;;5041541;28;20449;-74
2023/12/13 13:54:51;;;;;;;3.10;1.50;;;9.70;99.90;;;;;;5034944;28;20797;-73
2023/12/13 13:57:37;;;;;;;6.83;1.90;;;9.60;99.90;;;;;;5037295;28;20805;-73
2023/12/13 14:00:22;;;;;;;3.70;1.50;;;9.70;99.90;;;;;;5031104;28;20426;-74
2023/12/13 14:03:09;;;;;;;3.37;1.63;;;9.70;99.90;;;;;;5029666;28;20942;-72
2023/12/13 14:05:58;;;;;;;5.00;2.27;;;9.70;99.90;;;;;;5035655;28;20430;-72
2023/12/13 14:08:44;;;;;;;2.97;1.80;;;9.60;99.90;;;;;;5033516;28;20459;-72
2023/12/13 14:11:30;;;;;;;2.57;1.33;;;9.50;99.90;;;;;;5034328;28;20962;-73
2023/12/13 14:14:16;;;;;;;6.93;2.10;;;9.50;99.90;;;;;;5031484;28;20426;-74
2023/12/13 14:17:02;;;;;;;3.03;1.60;;;9.50;99.90;;;;;;5038609;28;20462;-73
2023/12/13 14:19:49;;;;;;;5.13;2.20;;;9.40;99.90;;;;;;5026187;28;20993;-73
2023/12/13 14:22:36;;;;;;;2.63;1.80;;;9.40;99.90;;;;;;5029145;28;20992;-73
2023/12/13 14:25:22;;;;;;;5.27;2.10;;;9.30;99.90;;;;;;5038674;28;20554;-75
2023/12/13 14:28:07;;;;;;;3.23;1.50;;;9.20;99.90;;;;;;5026553;28;20553;-74